sensor_id;sensor_type;location;lat;lon;timestamp;P1;durP1;ratioP1;P2;durP2;ratioP2
63945;SDS011;50122;56.330;43.838;2022-09-01T00:02:28;13.88;;;8.40;;
63945;SDS011;50122;56.330;43.838;2022-09-01T00:04:55;16.98;;;8.50;;
63945;SDS011;50122;56.330;43.838;2022-09-01T00:07:25;12.80;;;7.65;;
63945;SDS011;50122;56.330;43.838;2022-09-01T00:09:56;11.68;;;6.88;;
63945;SDS011;50122;56.330;43.838;2022-09-01T00:12:24;12.85;;;6.43;;
63945;SDS011;50122;56.330;43.838;2022-09-01T00:14:51;12.90;;;6.03;;
63945;SDS011;50122;56.330;43.838;2022-09-01T00:17:19;11.65;;;5.47;;
63945;SDS011;50122;56.330;43.838;2022-09-01T00:19:47;12.73;;;6.25;;
63945;SDS011;50122;56.330;43.838;2022-09-01T00:22:14;12.07;;;6.03;;
63945;SDS011;50122;56.330;43.838;2022-09-01T00:24:41;12.93;;;6.40;;
63945;SDS011;50122;56.330;43.838;2022-09-01T00:27:08;11.95;;;7.00;;
63945;SDS011;50122;56.330;43.838;2022-09-01T00:29:35;14.52;;;8.32;;
63945;SDS011;50122;56.330;43.838;2022-09-01T00:32:08;14.50;;;7.50;;
63945;SDS011;50122;56.330;43.838;2022-09-01T00:34:35;14.63;;;7.45;;
63945;SDS011;50122;56.330;43.838;2022-09-01T00:37:01;15.13;;;8.52;;
63945;SDS011;50122;56.330;43.838;2022-09-01T00:39:28;13.80;;;7.57;;
63945;SDS011;50122;56.330;43.838;2022-09-01T00:41:55;12.80;;;7.60;;
63945;SDS011;50122;56.330;43.838;2022-09-01T00:44:25;14.50;;;7.10;;
63945;SDS011;50122;56.330;43.838;2022-09-01T00:46:56;11.45;;;6.50;;
63945;SDS011;50122;56.330;43.838;2022-09-01T00:49:29;10.77;;;6.65;;
63945;SDS011;50122;56.330;43.838;2022-09-01T00:54:52;10.57;;;5.18;;
63945;SDS011;50122;56.330;43.838;2022-09-01T00:57:23;12.35;;;6.15;;
63945;SDS011;50122;56.330;43.838;2022-09-01T00:59:56;9.38;;;4.13;;
63945;SDS011;50122;56.330;43.838;2022-09-01T01:02:25;11.13;;;4.75;;
63945;SDS011;50122;56.330;43.838;2022-09-01T01:04:52;10.73;;;5.05;;
63945;SDS011;50122;56.330;43.838;2022-09-01T01:07:23;9.30;;;4.60;;
63945;SDS011;50122;56.330;43.838;2022-09-01T01:09:52;8.48;;;3.88;;
63945;SDS011;50122;56.330;43.838;2022-09-01T01:12:19;9.57;;;3.92;;
63945;SDS011;50122;56.330;43.838;2022-09-01T01:14:47;7.93;;;4.28;;
63945;SDS011;50122;56.330;43.838;2022-09-01T01:17:17;10.10;;;4.57;;
63945;SDS011;50122;56.330;43.838;2022-09-01T01:19:45;9.63;;;5.10;;
63945;SDS011;50122;56.330;43.838;2022-09-01T01:22:44;10.80;;;4.82;;
63945;SDS011;50122;56.330;43.838;2022-09-01T01:28:12;7.85;;;4.28;;
63945;SDS011;50122;56.330;43.838;2022-09-01T01:31:04;9.75;;;3.45;;
63945;SDS011;50122;56.330;43.838;2022-09-01T01:33:40;8.52;;;3.88;;
63945;SDS011;50122;56.330;43.838;2022-09-01T01:36:31;8.73;;;3.25;;
63945;SDS011;50122;56.330;43.838;2022-09-01T01:39:04;6.18;;;2.85;;
63945;SDS011;50122;56.330;43.838;2022-09-01T01:41:36;5.90;;;2.85;;
63945;SDS011;50122;56.330;43.838;2022-09-01T01:44:07;5.72;;;2.60;;
63945;SDS011;50122;56.330;43.838;2022-09-01T01:46:39;5.15;;;2.60;;
63945;SDS011;50122;56.330;43.838;2022-09-01T01:49:11;4.45;;;2.20;;
63945;SDS011;50122;56.330;43.838;2022-09-01T01:51:44;4.88;;;2.28;;
63945;SDS011;50122;56.330;43.838;2022-09-01T01:54:12;5.20;;;1.90;;
63945;SDS011;50122;56.330;43.838;2022-09-01T01:56:41;3.95;;;1.88;;
63945;SDS011;50122;56.330;43.838;2022-09-01T01:59:08;4.00;;;1.90;;
63945;SDS011;50122;56.330;43.838;2022-09-01T02:01:44;7.45;;;1.75;;
63945;SDS011;50122;56.330;43.838;2022-09-01T02:04:14;6.28;;;2.28;;
63945;SDS011;50122;56.330;43.838;2022-09-01T02:06:42;3.45;;;1.70;;
63945;SDS011;50122;56.330;43.838;2022-09-01T02:09:13;5.25;;;2.08;;
63945;SDS011;50122;56.330;43.838;2022-09-01T02:11:46;4.57;;;1.80;;
63945;SDS011;50122;56.330;43.838;2022-09-01T02:14:13;5.07;;;2.03;;
63945;SDS011;50122;56.330;43.838;2022-09-01T02:16:45;4.10;;;1.73;;
63945;SDS011;50122;56.330;43.838;2022-09-01T02:19:13;5.50;;;1.63;;
63945;SDS011;50122;56.330;43.838;2022-09-01T02:21:39;4.95;;;2.15;;
63945;SDS011;50122;56.330;43.838;2022-09-01T02:24:10;3.67;;;1.73;;
63945;SDS011;50122;56.330;43.838;2022-09-01T02:26:39;9.75;;;2.20;;
63945;SDS011;50122;56.330;43.838;2022-09-01T02:29:11;5.22;;;2.40;;
63945;SDS011;50122;56.330;43.838;2022-09-01T02:31:50;5.57;;;2.63;;
63945;SDS011;50122;56.330;43.838;2022-09-01T02:34:19;4.95;;;2.45;;
63945;SDS011;50122;56.330;43.838;2022-09-01T02:36:50;5.32;;;2.65;;
63945;SDS011;50122;56.330;43.838;2022-09-01T02:39:21;5.28;;;2.78;;
63945;SDS011;50122;56.330;43.838;2022-09-01T02:41:53;8.27;;;3.22;;
63945;SDS011;50122;56.330;43.838;2022-09-01T02:44:20;5.78;;;2.78;;
63945;SDS011;50122;56.330;43.838;2022-09-01T02:46:49;6.03;;;2.50;;
63945;SDS011;50122;56.330;43.838;2022-09-01T02:49:18;8.13;;;2.45;;
63945;SDS011;50122;56.330;43.838;2022-09-01T02:51:50;6.40;;;2.38;;
63945;SDS011;50122;56.330;43.838;2022-09-01T02:54:20;7.70;;;2.60;;
63945;SDS011;50122;56.330;43.838;2022-09-01T02:56:48;8.10;;;2.33;;
63945;SDS011;50122;56.330;43.838;2022-09-01T02:59:15;6.30;;;2.00;;
63945;SDS011;50122;56.330;43.838;2022-09-01T03:01:43;4.10;;;2.25;;
63945;SDS011;50122;56.330;43.838;2022-09-01T03:04:12;5.28;;;2.30;;
63945;SDS011;50122;56.330;43.838;2022-09-01T03:06:40;3.97;;;2.13;;
63945;SDS011;50122;56.330;43.838;2022-09-01T03:09:08;4.35;;;2.17;;
63945;SDS011;50122;56.330;43.838;2022-09-01T03:11:38;4.43;;;2.20;;
63945;SDS011;50122;56.330;43.838;2022-09-01T03:14:07;4.05;;;2.20;;
63945;SDS011;50122;56.330;43.838;2022-09-01T03:16:35;3.95;;;2.20;;
63945;SDS011;50122;56.330;43.838;2022-09-01T03:19:05;6.05;;;2.10;;
63945;SDS011;50122;56.330;43.838;2022-09-01T03:21:35;3.53;;;2.15;;
63945;SDS011;50122;56.330;43.838;2022-09-01T03:24:07;5.43;;;1.95;;
63945;SDS011;50122;56.330;43.838;2022-09-01T03:26:36;2.78;;;1.75;;
63945;SDS011;50122;56.330;43.838;2022-09-01T03:29:03;3.72;;;1.60;;
63945;SDS011;50122;56.330;43.838;2022-09-01T03:31:30;2.97;;;1.45;;
63945;SDS011;50122;56.330;43.838;2022-09-01T03:33:58;5.78;;;1.80;;
63945;SDS011;50122;56.330;43.838;2022-09-01T03:36:26;3.35;;;1.45;;
63945;SDS011;50122;56.330;43.838;2022-09-01T03:38:54;3.92;;;1.60;;
63945;SDS011;50122;56.330;43.838;2022-09-01T03:41:24;3.88;;;1.55;;
63945;SDS011;50122;56.330;43.838;2022-09-01T03:43:57;2.88;;;1.50;;
63945;SDS011;50122;56.330;43.838;2022-09-01T03:46:26;2.88;;;1.25;;
63945;SDS011;50122;56.330;43.838;2022-09-01T03:49:01;4.18;;;1.30;;
63945;SDS011;50122;56.330;43.838;2022-09-01T03:51:33;3.45;;;1.33;;
63945;SDS011;50122;56.330;43.838;2022-09-01T03:54:00;2.65;;;1.20;;
63945;SDS011;50122;56.330;43.838;2022-09-01T03:56:27;2.50;;;1.00;;
63945;SDS011;50122;56.330;43.838;2022-09-01T03:58:56;2.38;;;1.17;;
63945;SDS011;50122;56.330;43.838;2022-09-01T04:01:25;1.83;;;1.15;;
63945;SDS011;50122;56.330;43.838;2022-09-01T04:03:54;1.95;;;1.10;;
63945;SDS011;50122;56.330;43.838;2022-09-01T04:06:22;2.08;;;1.20;;
63945;SDS011;50122;56.330;43.838;2022-09-01T04:08:50;1.70;;;1.10;;
63945;SDS011;50122;56.330;43.838;2022-09-01T04:11:28;3.67;;;1.30;;
63945;SDS011;50122;56.330;43.838;2022-09-01T04:13:56;2.70;;;1.30;;
63945;SDS011;50122;56.330;43.838;2022-09-01T04:16:26;1.98;;;1.10;;
63945;SDS011;50122;56.330;43.838;2022-09-01T04:19:14;3.58;;;1.23;;
63945;SDS011;50122;56.330;43.838;2022-09-01T04:21:46;1.75;;;1.13;;
63945;SDS011;50122;56.330;43.838;2022-09-01T04:24:17;2.65;;;1.10;;
63945;SDS011;50122;56.330;43.838;2022-09-01T04:26:45;2.25;;;1.20;;
63945;SDS011;50122;56.330;43.838;2022-09-01T04:29:14;5.22;;;1.15;;
63945;SDS011;50122;56.330;43.838;2022-09-01T04:31:44;1.80;;;1.20;;
63945;SDS011;50122;56.330;43.838;2022-09-01T04:34:14;1.35;;;1.20;;
63945;SDS011;50122;56.330;43.838;2022-09-01T04:36:42;2.58;;;0.82;;
63945;SDS011;50122;56.330;43.838;2022-09-01T04:39:10;2.60;;;1.10;;
63945;SDS011;50122;56.330;43.838;2022-09-01T04:41:40;4.07;;;0.90;;
63945;SDS011;50122;56.330;43.838;2022-09-01T04:44:11;1.80;;;0.90;;
63945;SDS011;50122;56.330;43.838;2022-09-01T04:46:42;5.32;;;1.30;;
63945;SDS011;50122;56.330;43.838;2022-09-01T04:49:11;2.28;;;1.10;;
63945;SDS011;50122;56.330;43.838;2022-09-01T04:51:45;3.80;;;1.10;;
63945;SDS011;50122;56.330;43.838;2022-09-01T04:54:19;2.40;;;0.90;;
63945;SDS011;50122;56.330;43.838;2022-09-01T04:56:49;1.35;;;1.00;;
63945;SDS011;50122;56.330;43.838;2022-09-01T04:59:21;4.07;;;1.00;;
63945;SDS011;50122;56.330;43.838;2022-09-01T05:01:49;1.90;;;0.88;;
63945;SDS011;50122;56.330;43.838;2022-09-01T05:04:24;3.45;;;1.00;;
63945;SDS011;50122;56.330;43.838;2022-09-01T05:06:56;2.22;;;1.20;;
63945;SDS011;50122;56.330;43.838;2022-09-01T05:09:27;2.80;;;1.30;;
63945;SDS011;50122;56.330;43.838;2022-09-01T05:12:00;2.40;;;1.10;;
63945;SDS011;50122;56.330;43.838;2022-09-01T05:14:42;2.30;;;1.27;;
63945;SDS011;50122;56.330;43.838;2022-09-01T05:17:12;2.67;;;1.10;;
63945;SDS011;50122;56.330;43.838;2022-09-01T05:19:41;2.03;;;0.80;;
63945;SDS011;50122;56.330;43.838;2022-09-01T05:22:10;3.53;;;1.15;;
63945;SDS011;50122;56.330;43.838;2022-09-01T05:24:38;1.98;;;1.00;;
63945;SDS011;50122;56.330;43.838;2022-09-01T05:27:07;2.00;;;1.00;;
63945;SDS011;50122;56.330;43.838;2022-09-01T05:29:36;2.08;;;0.73;;
63945;SDS011;50122;56.330;43.838;2022-09-01T05:32:03;2.30;;;1.45;;
63945;SDS011;50122;56.330;43.838;2022-09-01T05:34:36;1.33;;;0.90;;
63945;SDS011;50122;56.330;43.838;2022-09-01T05:37:05;3.50;;;1.20;;
63945;SDS011;50122;56.330;43.838;2022-09-01T05:39:34;1.33;;;0.77;;
63945;SDS011;50122;56.330;43.838;2022-09-01T05:42:03;1.90;;;1.00;;
63945;SDS011;50122;56.330;43.838;2022-09-01T05:44:33;2.00;;;1.00;;
63945;SDS011;50122;56.330;43.838;2022-09-01T05:47:01;3.50;;;1.42;;
63945;SDS011;50122;56.330;43.838;2022-09-01T05:49:29;2.50;;;1.10;;
63945;SDS011;50122;56.330;43.838;2022-09-01T05:51:58;3.25;;;1.00;;
63945;SDS011;50122;56.330;43.838;2022-09-01T05:54:26;1.42;;;0.90;;
63945;SDS011;50122;56.330;43.838;2022-09-01T05:56:57;2.25;;;1.00;;
63945;SDS011;50122;56.330;43.838;2022-09-01T05:59:48;2.65;;;1.20;;
63945;SDS011;50122;56.330;43.838;2022-09-01T06:02:21;2.10;;;0.82;;
63945;SDS011;50122;56.330;43.838;2022-09-01T06:04:49;1.17;;;0.90;;
63945;SDS011;50122;56.330;43.838;2022-09-01T06:07:16;3.35;;;0.90;;
63945;SDS011;50122;56.330;43.838;2022-09-01T06:09:50;3.33;;;0.85;;
63945;SDS011;50122;56.330;43.838;2022-09-01T06:12:19;0.93;;;0.65;;
63945;SDS011;50122;56.330;43.838;2022-09-01T06:14:50;2.90;;;0.95;;
63945;SDS011;50122;56.330;43.838;2022-09-01T06:17:22;1.33;;;0.90;;
63945;SDS011;50122;56.330;43.838;2022-09-01T06:19:53;0.95;;;0.90;;
63945;SDS011;50122;56.330;43.838;2022-09-01T06:22:22;2.50;;;1.10;;
63945;SDS011;50122;56.330;43.838;2022-09-01T06:24:50;3.85;;;1.00;;
63945;SDS011;50122;56.330;43.838;2022-09-01T06:27:27;1.85;;;1.02;;
63945;SDS011;50122;56.330;43.838;2022-09-01T06:29:54;0.93;;;0.60;;
63945;SDS011;50122;56.330;43.838;2022-09-01T06:32:21;2.10;;;1.00;;
63945;SDS011;50122;56.330;43.838;2022-09-01T06:34:51;2.03;;;0.90;;
63945;SDS011;50122;56.330;43.838;2022-09-01T06:37:18;0.75;;;0.70;;
63945;SDS011;50122;56.330;43.838;2022-09-01T06:39:48;3.22;;;1.05;;
63945;SDS011;50122;56.330;43.838;2022-09-01T06:42:16;2.35;;;0.98;;
63945;SDS011;50122;56.330;43.838;2022-09-01T06:44:44;5.55;;;1.20;;
63945;SDS011;50122;56.330;43.838;2022-09-01T06:47:11;2.95;;;1.10;;
63945;SDS011;50122;56.330;43.838;2022-09-01T06:49:38;2.65;;;1.25;;
63945;SDS011;50122;56.330;43.838;2022-09-01T06:52:06;1.92;;;0.95;;
63945;SDS011;50122;56.330;43.838;2022-09-01T06:54:34;3.28;;;0.95;;
63945;SDS011;50122;56.330;43.838;2022-09-01T06:57:05;2.17;;;0.80;;
63945;SDS011;50122;56.330;43.838;2022-09-01T06:59:52;2.67;;;0.90;;
63945;SDS011;50122;56.330;43.838;2022-09-01T07:02:20;3.65;;;0.98;;
63945;SDS011;50122;56.330;43.838;2022-09-01T07:04:52;1.42;;;0.70;;
63945;SDS011;50122;56.330;43.838;2022-09-01T07:07:19;4.50;;;1.02;;
63945;SDS011;50122;56.330;43.838;2022-09-01T07:10:08;1.67;;;0.98;;
63945;SDS011;50122;56.330;43.838;2022-09-01T07:12:55;2.20;;;1.00;;
63945;SDS011;50122;56.330;43.838;2022-09-01T07:15:31;2.00;;;0.95;;
63945;SDS011;50122;56.330;43.838;2022-09-01T07:18:19;4.20;;;0.90;;
63945;SDS011;50122;56.330;43.838;2022-09-01T07:20:50;2.20;;;1.00;;
63945;SDS011;50122;56.330;43.838;2022-09-01T07:23:38;4.25;;;1.20;;
63945;SDS011;50122;56.330;43.838;2022-09-01T07:26:25;4.13;;;1.02;;
63945;SDS011;50122;56.330;43.838;2022-09-01T07:28:53;2.35;;;1.10;;
63945;SDS011;50122;56.330;43.838;2022-09-01T07:31:42;1.85;;;0.77;;
63945;SDS011;50122;56.330;43.838;2022-09-01T07:34:29;0.93;;;0.80;;
63945;SDS011;50122;56.330;43.838;2022-09-01T07:37:04;2.60;;;0.73;;
63945;SDS011;50122;56.330;43.838;2022-09-01T07:39:51;1.65;;;0.90;;
63945;SDS011;50122;56.330;43.838;2022-09-01T07:42:38;0.95;;;0.80;;
63945;SDS011;50122;56.330;43.838;2022-09-01T07:45:27;1.45;;;0.90;;
63945;SDS011;50122;56.330;43.838;2022-09-01T07:47:54;1.38;;;0.90;;
63945;SDS011;50122;56.330;43.838;2022-09-01T07:50:22;0.70;;;0.70;;
63945;SDS011;50122;56.330;43.838;2022-09-01T07:53:06;1.60;;;0.70;;
63945;SDS011;50122;56.330;43.838;2022-09-01T07:55:37;2.55;;;0.82;;
63945;SDS011;50122;56.330;43.838;2022-09-01T07:58:09;1.02;;;0.73;;
63945;SDS011;50122;56.330;43.838;2022-09-01T08:00:38;1.20;;;0.70;;
63945;SDS011;50122;56.330;43.838;2022-09-01T08:03:08;1.50;;;0.85;;
63945;SDS011;50122;56.330;43.838;2022-09-01T08:05:35;2.95;;;0.80;;
63945;SDS011;50122;56.330;43.838;2022-09-01T08:08:02;1.20;;;0.70;;
63945;SDS011;50122;56.330;43.838;2022-09-01T08:10:44;0.68;;;0.68;;
63945;SDS011;50122;56.330;43.838;2022-09-01T08:13:15;1.00;;;0.93;;
63945;SDS011;50122;56.330;43.838;2022-09-01T08:15:46;2.10;;;1.15;;
63945;SDS011;50122;56.330;43.838;2022-09-01T08:18:32;3.75;;;1.00;;
63945;SDS011;50122;56.330;43.838;2022-09-01T08:21:16;2.22;;;0.98;;
63945;SDS011;50122;56.330;43.838;2022-09-01T08:23:44;2.08;;;0.88;;
63945;SDS011;50122;56.330;43.838;2022-09-01T08:26:12;1.42;;;0.70;;
63945;SDS011;50122;56.330;43.838;2022-09-01T08:28:41;1.02;;;0.90;;
63945;SDS011;50122;56.330;43.838;2022-09-01T08:31:19;3.10;;;1.10;;
63945;SDS011;50122;56.330;43.838;2022-09-01T08:33:48;1.33;;;0.90;;
63945;SDS011;50122;56.330;43.838;2022-09-01T08:36:16;2.35;;;0.80;;
63945;SDS011;50122;56.330;43.838;2022-09-01T08:38:50;4.35;;;0.90;;
63945;SDS011;50122;56.330;43.838;2022-09-01T08:46:51;1.25;;;0.77;;
63945;SDS011;50122;56.330;43.838;2022-09-01T08:49:23;1.17;;;0.90;;
63945;SDS011;50122;56.330;43.838;2022-09-01T08:57:17;2.50;;;0.82;;
63945;SDS011;50122;56.330;43.838;2022-09-01T09:05:22;3.70;;;0.80;;
63945;SDS011;50122;56.330;43.838;2022-09-01T09:22:13;2.17;;;1.17;;
63945;SDS011;50122;56.330;43.838;2022-09-01T09:29:49;2.15;;;0.90;;
63945;SDS011;50122;56.330;43.838;2022-09-01T09:43:46;6.00;;;2.10;;
63945;SDS011;50122;56.330;43.838;2022-09-01T09:46:19;5.35;;;1.90;;
63945;SDS011;50122;56.330;43.838;2022-09-01T09:49:14;3.03;;;1.00;;
63945;SDS011;50122;56.330;43.838;2022-09-01T09:57:11;5.07;;;1.50;;
63945;SDS011;50122;56.330;43.838;2022-09-01T09:59:47;1.13;;;0.90;;
63945;SDS011;50122;56.330;43.838;2022-09-01T10:02:42;4.50;;;1.10;;
63945;SDS011;50122;56.330;43.838;2022-09-01T10:05:20;3.20;;;1.05;;
63945;SDS011;50122;56.330;43.838;2022-09-01T10:07:53;5.00;;;2.10;;
63945;SDS011;50122;56.330;43.838;2022-09-01T10:13:23;5.05;;;1.27;;
63945;SDS011;50122;56.330;43.838;2022-09-01T10:15:53;3.05;;;1.70;;
63945;SDS011;50122;56.330;43.838;2022-09-01T10:18:34;5.35;;;2.20;;
63945;SDS011;50122;56.330;43.838;2022-09-01T10:23:35;1.95;;;1.02;;
63945;SDS011;50122;56.330;43.838;2022-09-01T10:26:23;3.28;;;1.00;;
63945;SDS011;50122;56.330;43.838;2022-09-01T10:28:56;5.32;;;1.33;;
63945;SDS011;50122;56.330;43.838;2022-09-01T10:31:27;5.15;;;1.20;;
63945;SDS011;50122;56.330;43.838;2022-09-01T10:33:58;3.60;;;1.30;;
63945;SDS011;50122;56.330;43.838;2022-09-01T10:36:31;6.13;;;1.60;;
63945;SDS011;50122;56.330;43.838;2022-09-01T10:39:00;3.88;;;1.20;;
63945;SDS011;50122;56.330;43.838;2022-09-01T10:47:03;4.35;;;1.58;;
63945;SDS011;50122;56.330;43.838;2022-09-01T10:49:57;1.45;;;0.70;;
63945;SDS011;50122;56.330;43.838;2022-09-01T11:08:55;1.85;;;0.80;;
63945;SDS011;50122;56.330;43.838;2022-09-01T11:11:35;1.88;;;1.00;;
63945;SDS011;50122;56.330;43.838;2022-09-01T11:14:15;4.43;;;0.93;;
63945;SDS011;50122;56.330;43.838;2022-09-01T11:35:36;3.20;;;0.90;;
63945;SDS011;50122;56.330;43.838;2022-09-01T11:38:04;3.10;;;1.00;;
63945;SDS011;50122;56.330;43.838;2022-09-01T11:40:34;1.45;;;1.10;;
63945;SDS011;50122;56.330;43.838;2022-09-01T11:43:05;3.03;;;1.65;;
63945;SDS011;50122;56.330;43.838;2022-09-01T11:45:49;2.97;;;1.30;;
63945;SDS011;50122;56.330;43.838;2022-09-01T11:48:38;2.05;;;0.85;;
63945;SDS011;50122;56.330;43.838;2022-09-01T11:51:05;2.05;;;0.80;;
63945;SDS011;50122;56.330;43.838;2022-09-01T11:53:31;1.65;;;0.90;;
63945;SDS011;50122;56.330;43.838;2022-09-01T11:56:11;2.20;;;0.95;;
63945;SDS011;50122;56.330;43.838;2022-09-01T11:58:44;2.25;;;0.90;;
63945;SDS011;50122;56.330;43.838;2022-09-01T12:03:48;2.50;;;0.98;;
63945;SDS011;50122;56.330;43.838;2022-09-01T12:06:20;1.60;;;1.10;;
63945;SDS011;50122;56.330;43.838;2022-09-01T12:08:50;2.45;;;1.10;;
63945;SDS011;50122;56.330;43.838;2022-09-01T12:11:24;6.70;;;1.60;;
63945;SDS011;50122;56.330;43.838;2022-09-01T12:14:05;3.40;;;1.00;;
63945;SDS011;50122;56.330;43.838;2022-09-01T12:16:38;3.35;;;1.23;;
63945;SDS011;50122;56.330;43.838;2022-09-01T12:19:20;2.92;;;1.30;;
63945;SDS011;50122;56.330;43.838;2022-09-01T12:22:00;7.45;;;5.82;;
63945;SDS011;50122;56.330;43.838;2022-09-01T12:24:34;8.00;;;2.25;;
63945;SDS011;50122;56.330;43.838;2022-09-01T12:27:01;5.20;;;3.10;;
63945;SDS011;50122;56.330;43.838;2022-09-01T12:29:28;5.07;;;1.95;;
63945;SDS011;50122;56.330;43.838;2022-09-01T12:31:57;4.40;;;1.40;;
63945;SDS011;50122;56.330;43.838;2022-09-01T12:37:05;2.17;;;1.00;;
63945;SDS011;50122;56.330;43.838;2022-09-01T12:39:34;4.60;;;1.50;;
63945;SDS011;50122;56.330;43.838;2022-09-01T12:42:05;4.68;;;1.52;;
63945;SDS011;50122;56.330;43.838;2022-09-01T12:52:45;1.20;;;1.08;;
63945;SDS011;50122;56.330;43.838;2022-09-01T12:55:22;1.92;;;1.20;;
63945;SDS011;50122;56.330;43.838;2022-09-01T12:58:11;3.15;;;0.90;;
63945;SDS011;50122;56.330;43.838;2022-09-01T13:03:21;4.38;;;1.13;;
63945;SDS011;50122;56.330;43.838;2022-09-01T13:05:49;2.55;;;1.02;;
63945;SDS011;50122;56.330;43.838;2022-09-01T13:08:19;2.65;;;1.10;;
63945;SDS011;50122;56.330;43.838;2022-09-01T13:10:49;2.60;;;1.10;;
63945;SDS011;50122;56.330;43.838;2022-09-01T13:13:21;1.95;;;1.10;;
63945;SDS011;50122;56.330;43.838;2022-09-01T13:15:51;2.67;;;1.20;;
63945;SDS011;50122;56.330;43.838;2022-09-01T13:18:20;4.38;;;1.00;;
63945;SDS011;50122;56.330;43.838;2022-09-01T13:20:49;5.45;;;1.15;;
63945;SDS011;50122;56.330;43.838;2022-09-01T13:23:18;2.63;;;1.00;;
63945;SDS011;50122;56.330;43.838;2022-09-01T13:25:46;2.72;;;0.98;;
63945;SDS011;50122;56.330;43.838;2022-09-01T13:28:14;1.98;;;1.00;;
63945;SDS011;50122;56.330;43.838;2022-09-01T13:30:44;2.22;;;1.00;;
63945;SDS011;50122;56.330;43.838;2022-09-01T13:33:38;2.97;;;1.10;;
63945;SDS011;50122;56.330;43.838;2022-09-01T13:36:25;5.50;;;1.00;;
63945;SDS011;50122;56.330;43.838;2022-09-01T13:39:11;3.83;;;1.30;;
63945;SDS011;50122;56.330;43.838;2022-09-01T13:41:38;5.95;;;1.20;;
63945;SDS011;50122;56.330;43.838;2022-09-01T13:44:05;1.88;;;1.10;;
63945;SDS011;50122;56.330;43.838;2022-09-01T13:46:33;2.28;;;1.38;;
63945;SDS011;50122;56.330;43.838;2022-09-01T13:49:00;5.47;;;1.70;;
63945;SDS011;50122;56.330;43.838;2022-09-01T13:51:51;3.55;;;1.30;;
63945;SDS011;50122;56.330;43.838;2022-09-01T13:54:19;4.63;;;1.20;;
63945;SDS011;50122;56.330;43.838;2022-09-01T13:56:46;2.22;;;1.27;;
63945;SDS011;50122;56.330;43.838;2022-09-01T13:59:13;4.30;;;1.20;;
63945;SDS011;50122;56.330;43.838;2022-09-01T14:01:40;2.95;;;1.15;;
63945;SDS011;50122;56.330;43.838;2022-09-01T14:04:08;3.63;;;0.90;;
63945;SDS011;50122;56.330;43.838;2022-09-01T14:06:39;1.70;;;0.98;;
63945;SDS011;50122;56.330;43.838;2022-09-01T14:09:10;1.85;;;1.30;;
63945;SDS011;50122;56.330;43.838;2022-09-01T14:11:42;2.72;;;1.17;;
63945;SDS011;50122;56.330;43.838;2022-09-01T14:14:09;2.78;;;1.30;;
63945;SDS011;50122;56.330;43.838;2022-09-01T14:16:36;2.47;;;1.60;;
63945;SDS011;50122;56.330;43.838;2022-09-01T14:19:03;2.80;;;1.75;;
63945;SDS011;50122;56.330;43.838;2022-09-01T14:21:30;3.05;;;1.77;;
63945;SDS011;50122;56.330;43.838;2022-09-01T14:23:58;4.82;;;1.50;;
63945;SDS011;50122;56.330;43.838;2022-09-01T14:26:25;3.58;;;1.70;;
63945;SDS011;50122;56.330;43.838;2022-09-01T14:28:53;2.03;;;1.30;;
63945;SDS011;50122;56.330;43.838;2022-09-01T14:31:20;4.97;;;1.77;;
63945;SDS011;50122;56.330;43.838;2022-09-01T14:33:47;4.50;;;1.70;;
63945;SDS011;50122;56.330;43.838;2022-09-01T14:36:16;3.13;;;1.67;;
63945;SDS011;50122;56.330;43.838;2022-09-01T14:38:53;4.95;;;1.60;;
63945;SDS011;50122;56.330;43.838;2022-09-01T14:41:20;3.55;;;1.50;;
63945;SDS011;50122;56.330;43.838;2022-09-01T14:43:52;2.42;;;1.08;;
63945;SDS011;50122;56.330;43.838;2022-09-01T14:46:27;2.75;;;1.00;;
63945;SDS011;50122;56.330;43.838;2022-09-01T14:49:00;3.15;;;1.20;;
63945;SDS011;50122;56.330;43.838;2022-09-01T14:51:28;2.45;;;0.88;;
63945;SDS011;50122;56.330;43.838;2022-09-01T14:54:16;2.78;;;1.20;;
63945;SDS011;50122;56.330;43.838;2022-09-01T14:56:44;6.78;;;2.58;;
63945;SDS011;50122;56.330;43.838;2022-09-01T14:59:32;4.40;;;2.33;;
63945;SDS011;50122;56.330;43.838;2022-09-01T15:01:59;4.22;;;1.73;;
63945;SDS011;50122;56.330;43.838;2022-09-01T15:04:26;4.90;;;1.40;;
63945;SDS011;50122;56.330;43.838;2022-09-01T15:06:53;1.85;;;1.10;;
63945;SDS011;50122;56.330;43.838;2022-09-01T15:09:20;2.88;;;1.17;;
63945;SDS011;50122;56.330;43.838;2022-09-01T15:11:48;4.75;;;1.27;;
63945;SDS011;50122;56.330;43.838;2022-09-01T15:14:15;3.30;;;1.30;;
63945;SDS011;50122;56.330;43.838;2022-09-01T15:16:43;3.40;;;1.30;;
63945;SDS011;50122;56.330;43.838;2022-09-01T15:19:11;4.03;;;1.50;;
63945;SDS011;50122;56.330;43.838;2022-09-01T15:21:39;4.78;;;1.42;;
63945;SDS011;50122;56.330;43.838;2022-09-01T15:24:09;4.07;;;1.40;;
63945;SDS011;50122;56.330;43.838;2022-09-01T15:26:36;3.22;;;1.10;;
63945;SDS011;50122;56.330;43.838;2022-09-01T15:29:06;2.20;;;1.40;;
63945;SDS011;50122;56.330;43.838;2022-09-01T15:31:35;3.42;;;1.52;;
63945;SDS011;50122;56.330;43.838;2022-09-01T15:34:02;1.92;;;1.25;;
63945;SDS011;50122;56.330;43.838;2022-09-01T15:36:30;1.73;;;1.10;;
63945;SDS011;50122;56.330;43.838;2022-09-01T15:39:01;2.65;;;1.02;;
63945;SDS011;50122;56.330;43.838;2022-09-01T15:41:29;3.78;;;1.33;;
63945;SDS011;50122;56.330;43.838;2022-09-01T15:43:57;3.45;;;1.30;;
63945;SDS011;50122;56.330;43.838;2022-09-01T15:46:25;4.30;;;2.15;;
63945;SDS011;50122;56.330;43.838;2022-09-01T15:48:59;6.35;;;2.72;;
63945;SDS011;50122;56.330;43.838;2022-09-01T15:51:29;5.35;;;3.05;;
63945;SDS011;50122;56.330;43.838;2022-09-01T15:53:57;23.00;;;16.88;;
63945;SDS011;50122;56.330;43.838;2022-09-01T15:56:29;27.73;;;20.13;;
63945;SDS011;50122;56.330;43.838;2022-09-01T15:58:56;13.95;;;8.82;;
63945;SDS011;50122;56.330;43.838;2022-09-01T16:01:28;35.42;;;24.77;;
63945;SDS011;50122;56.330;43.838;2022-09-01T16:03:57;15.95;;;11.90;;
63945;SDS011;50122;56.330;43.838;2022-09-01T16:06:23;9.18;;;3.72;;
63945;SDS011;50122;56.330;43.838;2022-09-01T16:08:51;6.15;;;2.78;;
63945;SDS011;50122;56.330;43.838;2022-09-01T16:11:21;2.83;;;1.67;;
63945;SDS011;50122;56.330;43.838;2022-09-01T16:13:48;6.00;;;2.85;;
63945;SDS011;50122;56.330;43.838;2022-09-01T16:21:30;4.60;;;1.98;;
63945;SDS011;50122;56.330;43.838;2022-09-01T16:24:11;4.38;;;1.90;;
63945;SDS011;50122;56.330;43.838;2022-09-01T16:26:39;5.32;;;1.80;;
63945;SDS011;50122;56.330;43.838;2022-09-01T16:29:37;4.10;;;1.60;;
63945;SDS011;50122;56.330;43.838;2022-09-01T16:32:10;7.28;;;1.60;;
63945;SDS011;50122;56.330;43.838;2022-09-01T16:34:39;2.65;;;1.27;;
63945;SDS011;50122;56.330;43.838;2022-09-01T16:48:35;4.63;;;1.50;;
63945;SDS011;50122;56.330;43.838;2022-09-01T16:51:16;2.97;;;1.63;;
63945;SDS011;50122;56.330;43.838;2022-09-01T16:56:35;4.00;;;1.88;;
63945;SDS011;50122;56.330;43.838;2022-09-01T17:01:50;10.13;;;2.40;;
63945;SDS011;50122;56.330;43.838;2022-09-01T17:04:41;5.68;;;1.75;;
63945;SDS011;50122;56.330;43.838;2022-09-01T17:07:22;10.57;;;1.90;;
63945;SDS011;50122;56.330;43.838;2022-09-01T17:09:58;20.92;;;2.83;;
63945;SDS011;50122;56.330;43.838;2022-09-01T17:15:15;22.55;;;3.55;;
63945;SDS011;50122;56.330;43.838;2022-09-01T17:17:57;18.55;;;3.00;;
63945;SDS011;50122;56.330;43.838;2022-09-01T17:20:48;9.10;;;2.60;;
63945;SDS011;50122;56.330;43.838;2022-09-01T17:25:55;6.50;;;2.67;;
63945;SDS011;50122;56.330;43.838;2022-09-01T17:31:12;11.57;;;3.00;;
63945;SDS011;50122;56.330;43.838;2022-09-01T17:42:09;9.57;;;4.40;;